Penn Center, Pennsylvania
Current Conditions -  °F | °C
As of 5:54 PM on Saturday 20 Dec 2014 (Local Time) from KPHL Reporting Station
Overcast Overcast  
Wind Chill: 31°   Ceiling: 3300
Heat Index: 35°   Visibility: 10mi
Dew Point: 21°   Wind: 5mph
Humidity: 57%   Direction: 340°NNW
Pressure: 30.29"   Gusts: NA
Location:  39.9531°N, 75.1651°W
Report Text: KPHL 202254Z 34004KT 10SM OVC033 02/M06 A3029 RMK AO2 SLP258 T00171061
Loading
Personal Weather Stations






























Interactive Weather Map New forecast layout! Learn more

10-Day Weather Forecast

Advertisements
Track Severe Weather on mobile